Terminal Aerodrome Forecast
Issued by NWS

Home | Current Version | Previous Version | Text Only | Print | Product List | Glossary On
Versions: 1 2 3 4 5 6 7 8 9 10 11 12 13 14 15 16 17 18 19 20 21
000
FTUS43 KGRR 061731
TAFMKG
TAF
KMKG 061731Z 0618/0718 21009KT P6SM FEW250
     FM070100 17006KT P6SM FEW250
     FM071000 24008KT P6SM VCSH BKN120
     FM071200 27009KT P6SM -SHRA BKN025
     FM071500 34015KT P6SM VCSH BKN060=

USA.gov is the U.S. government's official web portal to all federal, state and local government web resources and services.